Time;durP1;ratioP1;P1;durP2;ratioP2;P2;SDS_P1;SDS_P2;PMS_P1;PMS_P2;Temp;Humidity;BMP_temperature;BMP_pressure;BME280_temperature;BME280_humidity;BME280_pressure;Samples;Min_cycle;Max_cycle;Signal;HPM_P1;HPM_P2
2023/08/11 00:02:32;;;;;;;;;;;;;;;15.56;68.29;100500.16;5115108;27;5726;-76
2023/08/11 00:05:24;;;;;;;;;;;;;;;15.55;68.33;100501.25;5113918;27;5413;-76
2023/08/11 00:08:17;;;;;;;;;;;;;;;15.56;68.25;100503.72;5126447;27;6657;-77
2023/08/11 00:11:11;;;;;;;;;;;;;;;15.54;68.22;100507.75;5115831;27;5357;-77
2023/08/11 00:14:03;;;;;;;;;;;;;;;15.56;68.17;100508.31;5118882;27;5544;-76
2023/08/11 00:16:56;;;;;;;;;;;;;;;15.55;68.24;100510.19;5120407;27;5859;-75
2023/08/11 00:19:47;;;;;;;;;;;;;;;15.52;68.28;100499.03;5114710;27;6603;-76
2023/08/11 00:22:38;;;;;;;;;;;;;;;15.53;68.25;100509.66;5109901;27;5415;-76
2023/08/11 00:25:30;;;;;;;;;;;;;;;15.59;68.00;100514.06;5110127;27;5468;-76
2023/08/11 00:28:22;;;;;;;;;;;;;;;15.61;67.81;100505.66;5113714;27;6278;-76
2023/08/11 00:31:13;;;;;;;;;;;;;;;15.60;67.74;100509.44;5116766;27;5499;-78
2023/08/11 00:34:06;;;;;;;;;;;;;;;15.67;67.46;100505.47;5112197;27;6323;-75
2023/08/11 00:36:58;;;;;;;;;;;;;;;15.63;67.58;100511.66;5118477;27;5393;-77
2023/08/11 00:39:51;;;;;;;;;;;;;;;15.61;67.70;100516.50;5120585;27;5723;-78
2023/08/11 00:42:43;;;;;;;;;;;;;;;15.68;67.40;100514.47;5120064;27;5539;-76
2023/08/11 00:45:34;;;;;;;;;;;;;;;15.80;67.03;100507.00;5119837;27;5584;-77
2023/08/11 00:48:26;;;;;;;;;;;;;;;16.01;66.08;100501.78;5114677;27;5532;-77
2023/08/11 00:51:18;;;;;;;;;;;;;;;15.94;66.28;100503.84;5112797;27;5484;-78
2023/08/11 00:54:10;;;;;;;;;;;;;;;16.03;66.07;100507.75;5110938;27;5946;-75
2023/08/11 00:57:01;;;;;;;;;;;;;;;16.39;64.69;100505.38;5113505;27;5512;-77
2023/08/11 00:59:54;;;;;;;;;;;;;;;16.23;65.24;100513.38;5113738;27;5533;-76
2023/08/11 01:02:46;;;;;;;;;;;;;;;16.37;64.66;100512.97;5117047;27;6531;-75
2023/08/11 01:05:38;;;;;;;;;;;;;;;16.48;64.12;100512.78;5113785;27;6151;-76
2023/08/11 01:08:30;;;;;;;;;;;;;;;16.51;64.07;100516.88;5114101;27;5433;-76
2023/08/11 01:11:22;;;;;;;;;;;;;;;16.46;64.14;100525.81;5112041;27;5439;-76
2023/08/11 01:14:13;;;;;;;;;;;;;;;16.31;64.52;100531.94;5111571;27;5432;-76
2023/08/11 01:17:05;;;;;;;;;;;;;;;16.39;64.36;100522.50;5106191;27;5645;-77
2023/08/11 01:19:57;;;;;;;;;;;;;;;16.52;63.84;100522.03;5110823;27;5465;-78
2023/08/11 01:22:49;;;;;;;;;;;;;;;16.48;63.86;100523.66;5109929;27;5393;-76
2023/08/11 01:25:41;;;;;;;;;;;;;;;16.63;63.39;100525.69;5110891;27;5389;-75
2023/08/11 01:28:33;;;;;;;;;;;;;;;16.45;63.90;100524.19;5108138;27;5418;-75
2023/08/11 01:31:25;;;;;;;;;;;;;;;16.53;63.73;100525.56;5109862;27;5581;-76
2023/08/11 01:34:17;;;;;;;;;;;;;;;16.60;63.44;100525.38;5113463;27;6357;-75
2023/08/11 01:37:09;;;;;;;;;;;;;;;16.32;64.26;100520.00;5111194;27;5535;-76
2023/08/11 01:40:01;;;;;;;;;;;;;;;16.49;63.71;100519.03;5110476;27;5250;-75
2023/08/11 01:42:53;;;;;;;;;;;;;;;16.49;63.67;100521.75;5110303;27;7752;-78
2023/08/11 01:45:48;;;;;;;;;;;;;;;16.41;63.95;100525.75;5110436;27;7915;-76
2023/08/11 01:48:39;;;;;;;;;;;;;;;16.39;63.77;100521.69;5118010;27;6145;-75
2023/08/11 01:51:31;;;;;;;;;;;;;;;16.45;63.79;100526.09;5116543;27;5715;-77
2023/08/11 01:54:23;;;;;;;;;;;;;;;16.56;63.26;100519.66;5120140;27;5640;-75
2023/08/11 01:57:15;;;;;;;;;;;;;;;16.54;63.34;100521.81;5119533;27;6387;-75
2023/08/11 02:00:11;;;;;;;;;;;;;;;16.58;63.22;100522.91;5115522;27;5456;-75
2023/08/11 02:03:03;;;;;;;;;;;;;;;16.47;63.63;100526.63;5120431;27;5469;-76
2023/08/11 02:05:55;;;;;;;;;;;;;;;16.44;63.60;100527.13;5120414;27;5641;-77
2023/08/11 02:08:47;;;;;;;;;;;;;;;16.47;63.30;100530.19;5119034;27;5568;-75
2023/08/11 02:11:39;;;;;;;;;;;;;;;16.43;63.61;100526.31;5115814;27;5625;-75
2023/08/11 02:14:30;;;;;;;;;;;;;;;16.45;63.46;100520.66;5123116;27;6006;-76
2023/08/11 02:17:22;;;;;;;;;;;;;;;16.37;63.55;100511.06;5118355;27;6076;-75
2023/08/11 02:20:19;;;;;;;;;;;;;;;16.29;63.84;100517.78;5118325;27;5725;-77
2023/08/11 02:23:11;;;;;;;;;;;;;;;16.23;64.12;100518.00;5107471;27;5497;-75
2023/08/11 02:26:04;;;;;;;;;;;;;;;16.37;63.58;100513.78;5107218;27;6128;-76
2023/08/11 02:28:55;;;;;;;;;;;;;;;16.34;63.56;100506.13;5111143;27;5613;-76
2023/08/11 02:31:47;;;;;;;;;;;;;;;16.46;63.25;100505.97;5107145;27;5301;-75
2023/08/11 02:34:38;;;;;;;;;;;;;;;16.21;64.02;100512.84;5107677;27;5629;-75
2023/08/11 02:37:29;;;;;;;;;;;;;;;16.26;63.73;100510.13;5110977;27;5487;-76
2023/08/11 02:40:21;;;;;;;;;;;;;;;16.30;63.67;100499.59;5106797;27;5709;-77
2023/08/11 02:43:13;;;;;;;;;;;;;;;16.41;63.25;100505.91;5111066;27;6244;-77
2023/08/11 02:46:06;;;;;;;;;;;;;;;16.28;63.60;100499.84;5115706;27;5529;-76
2023/08/11 02:48:58;;;;;;;;;;;;;;;16.26;63.54;100493.84;5108847;27;5466;-76
2023/08/11 02:51:50;;;;;;;;;;;;;;;16.18;63.91;100502.47;5113386;28;5311;-75
2023/08/11 02:54:42;;;;;;;;;;;;;;;16.21;63.90;100503.88;5110964;27;5412;-78
2023/08/11 02:57:34;;;;;;;;;;;;;;;15.99;64.38;100503.91;5107419;28;5461;-76
2023/08/11 03:00:26;;;;;;;;;;;;;;;16.08;64.27;100496.94;5107056;27;5956;-76
2023/08/11 03:03:20;;;;;;;;;;;;;;;16.22;63.66;100510.94;5109562;28;5394;-76
2023/08/11 03:06:12;;;;;;;;;;;;;;;15.95;64.79;100503.63;5108681;28;5670;-76
2023/08/11 03:09:03;;;;;;;;;;;;;;;15.96;64.48;100513.41;5113822;28;5415;-76
2023/08/11 03:11:55;;;;;;;;;;;;;;;16.11;64.05;100507.28;5113192;27;5523;-75
2023/08/11 03:14:47;;;;;;;;;;;;;;;16.00;64.43;100514.53;5109243;28;5345;-76
2023/08/11 03:17:39;;;;;;;;;;;;;;;16.07;63.98;100519.75;5110645;28;5675;-76
2023/08/11 03:20:31;;;;;;;;;;;;;;;15.92;64.54;100522.31;5117662;27;5870;-75
2023/08/11 03:23:23;;;;;;;;;;;;;;;16.02;64.26;100525.13;5118670;27;5568;-77
2023/08/11 03:26:15;;;;;;;;;;;;;;;15.86;64.59;100533.13;5118287;27;5417;-76
2023/08/11 03:29:06;;;;;;;;;;;;;;;15.92;64.39;100533.19;5114747;27;7928;-75
2023/08/11 03:31:58;;;;;;;;;;;;;;;16.01;64.24;100537.91;5115415;27;5564;-75
2023/08/11 03:34:50;;;;;;;;;;;;;;;16.00;64.17;100530.00;5114054;27;5516;-76
2023/08/11 03:37:42;;;;;;;;;;;;;;;15.74;64.99;100535.16;5118166;27;5469;-76
2023/08/11 03:40:34;;;;;;;;;;;;;;;15.82;64.79;100529.25;5119055;27;5448;-78
2023/08/11 03:43:26;;;;;;;;;;;;;;;15.77;64.74;100531.94;5117503;27;5628;-75
2023/08/11 03:46:18;;;;;;;;;;;;;;;15.83;64.67;100528.22;5117844;27;6472;-77
2023/08/11 03:49:10;;;;;;;;;;;;;;;15.94;64.35;100536.44;5116746;27;5489;-75
2023/08/11 03:52:03;;;;;;;;;;;;;;;15.81;64.55;100540.41;5115832;27;5496;-76
2023/08/11 03:54:55;;;;;;;;;;;;;;;15.64;65.16;100540.44;5111661;27;5346;-75
2023/08/11 03:57:46;;;;;;;;;;;;;;;15.61;65.36;100540.94;5110346;28;5316;-78
2023/08/11 04:00:38;;;;;;;;;;;;;;;15.66;65.12;100538.28;5107866;27;5433;-76
2023/08/11 04:03:31;;;;;;;;;;;;;;;15.72;64.97;100534.59;5108325;28;5364;-76
2023/08/11 04:06:23;;;;;;;;;;;;;;;15.41;66.01;100544.22;5106603;27;5352;-76
2023/08/11 04:09:14;;;;;;;;;;;;;;;15.65;65.09;100550.25;5116521;27;5545;-78
2023/08/11 04:12:05;;;;;;;;;;;;;;;15.45;65.69;100557.03;5110686;27;5246;-75
2023/08/11 04:14:57;;;;;;;;;;;;;;;15.52;65.45;100556.03;5116774;27;5625;-77
2023/08/11 04:17:49;;;;;;;;;;;;;;;15.46;65.60;100555.16;5121010;27;5470;-76
2023/08/11 04:20:41;;;;;;;;;;;;;;;15.50;65.58;100550.88;5110033;27;5704;-76
2023/08/11 04:23:33;;;;;;;;;;;;;;;15.48;65.60;100557.63;5112816;27;5391;-75
2023/08/11 04:26:25;;;;;;;;;;;;;;;15.64;65.01;100557.53;5121618;27;5578;-75
2023/08/11 04:29:17;;;;;;;;;;;;;;;15.48;65.45;100554.91;5127333;27;5505;-75
2023/08/11 04:32:09;;;;;;;;;;;;;;;15.57;65.15;100559.63;5113636;27;5392;-75
2023/08/11 04:35:01;;;;;;;;;;;;;;;15.64;64.95;100554.81;5110898;27;5563;-77
2023/08/11 04:37:54;;;;;;;;;;;;;;;15.41;65.74;100555.91;5111938;27;5540;-76
2023/08/11 04:40:46;;;;;;;;;;;;;;;15.39;65.70;100554.53;5121161;27;5377;-77
2023/08/11 04:43:38;;;;;;;;;;;;;;;15.39;65.73;100560.75;5121662;27;6758;-77
2023/08/11 04:46:30;;;;;;;;;;;;;;;15.22;66.21;100562.69;5120687;27;5473;-76
2023/08/11 04:49:21;;;;;;;;;;;;;;;15.32;65.99;100562.81;5120123;27;5694;-76
2023/08/11 04:52:13;;;;;;;;;;;;;;;15.35;65.68;100559.63;5121313;27;5330;-76
2023/08/11 04:55:05;;;;;;;;;;;;;;;15.29;65.96;100554.38;5116538;27;5625;-74
2023/08/11 04:57:57;;;;;;;;;;;;;;;15.37;65.61;100557.47;5120211;27;5620;-77
2023/08/11 05:00:49;;;;;;;;;;;;;;;15.55;64.90;100558.25;5121829;27;6465;-76
2023/08/11 05:03:41;;;;;;;;;;;;;;;15.46;65.10;100547.00;5120330;27;5441;-76
2023/08/11 05:06:33;;;;;;;;;;;;;;;15.34;65.54;100549.84;5110093;27;5487;-77
2023/08/11 05:09:25;;;;;;;;;;;;;;;15.25;66.00;100547.81;5122164;27;5786;-77
2023/08/11 05:12:17;;;;;;;;;;;;;;;15.35;65.66;100540.66;5116008;27;5595;-78
2023/08/11 05:15:09;;;;;;;;;;;;;;;15.37;65.55;100535.75;5117500;27;5495;-77
2023/08/11 05:18:01;;;;;;;;;;;;;;;15.37;65.53;100543.09;5121453;27;5464;-78
2023/08/11 05:20:53;;;;;;;;;;;;;;;15.39;65.34;100547.19;5115164;27;5731;-77
2023/08/11 05:23:44;;;;;;;;;;;;;;;15.42;65.25;100554.03;5121756;27;5907;-77
2023/08/11 05:26:35;;;;;;;;;;;;;;;15.35;65.60;100553.38;5117333;27;5520;-77
2023/08/11 05:29:27;;;;;;;;;;;;;;;15.37;65.33;100554.75;5123102;27;5418;-76
2023/08/11 05:32:19;;;;;;;;;;;;;;;15.31;65.61;100560.38;5118915;27;5607;-75
2023/08/11 05:35:12;;;;;;;;;;;;;;;15.38;65.20;100558.28;5119919;27;5596;-78
2023/08/11 05:38:03;;;;;;;;;;;;;;;15.39;65.33;100554.53;5115071;27;5525;-76
2023/08/11 05:40:55;;;;;;;;;;;;;;;15.35;65.35;100556.94;5123538;27;5505;-78
2023/08/11 05:43:47;;;;;;;;;;;;;;;15.27;65.62;100567.38;5123855;27;6093;-77
2023/08/11 05:46:38;;;;;;;;;;;;;;;15.62;64.52;100565.13;5117633;27;5551;-77
2023/08/11 05:49:30;;;;;;;;;;;;;;;15.37;65.03;100565.63;5123706;27;6059;-76
2023/08/11 05:52:22;;;;;;;;;;;;;;;15.52;64.87;100572.31;5119420;27;8010;-76
2023/08/11 05:55:14;;;;;;;;;;;;;;;15.50;64.88;100574.44;5122949;27;5434;-76
2023/08/11 05:58:06;;;;;;;;;;;;;;;15.49;64.82;100572.81;5117717;27;5489;-76
2023/08/11 06:00:57;;;;;;;;;;;;;;;15.41;64.99;100569.50;5119691;27;5406;-76
2023/08/11 06:03:48;;;;;;;;;;;;;;;15.30;65.34;100569.59;5114542;27;5622;-76
2023/08/11 06:06:40;;;;;;;;;;;;;;;15.28;65.40;100572.56;5126063;27;5522;-75
2023/08/11 06:09:32;;;;;;;;;;;;;;;15.32;65.20;100568.25;5116952;27;5646;-75
2023/08/11 06:12:25;;;;;;;;;;;;;;;15.53;64.58;100566.66;5119281;27;5612;-77
2023/08/11 06:15:16;;;;;;;;;;;;;;;15.41;65.00;100579.50;5118630;27;5690;-76
2023/08/11 06:18:08;;;;;;;;;;;;;;;15.61;64.35;100573.53;5122953;27;5679;-76
2023/08/11 06:21:03;;;;;;;;;;;;;;;15.42;64.81;100583.88;5113486;27;5708;-76
2023/08/11 06:23:55;;;;;;;;;;;;;;;15.45;64.84;100586.09;5120256;27;6942;-76
2023/08/11 06:26:48;;;;;;;;;;;;;;;15.42;64.81;100581.97;5118291;27;6033;-76
2023/08/11 06:29:39;;;;;;;;;;;;;;;15.53;64.52;100582.09;5118314;27;5721;-76
2023/08/11 06:32:31;;;;;;;;;;;;;;;15.48;64.62;100584.75;5121779;27;5538;-78
2023/08/11 06:35:24;;;;;;;;;;;;;;;15.52;64.40;100577.75;5120621;27;5627;-75
2023/08/11 06:38:15;;;;;;;;;;;;;;;15.45;64.60;100592.31;5112333;27;5638;-78
2023/08/11 06:41:07;;;;;;;;;;;;;;;15.35;64.98;100583.22;5118507;27;5615;-78
2023/08/11 06:43:59;;;;;;;;;;;;;;;15.34;65.05;100590.53;5117159;27;5555;-74
2023/08/11 06:46:51;;;;;;;;;;;;;;;15.35;64.94;100584.06;5116965;27;6485;-77
2023/08/11 06:49:43;;;;;;;;;;;;;;;15.50;64.54;100590.75;5118710;27;6847;-75
2023/08/11 06:52:35;;;;;;;;;;;;;;;15.50;64.50;100593.44;5121433;27;8039;-75
2023/08/11 06:55:27;;;;;;;;;;;;;;;15.53;64.46;100591.09;5107270;27;6327;-76
2023/08/11 06:58:19;;;;;;;;;;;;;;;15.53;64.28;100598.38;5122169;27;4848;-78
2023/08/11 07:01:11;;;;;;;;;;;;;;;15.62;63.95;100599.59;5122448;27;5361;-76
2023/08/11 07:04:04;;;;;;;;;;;;;;;15.73;63.64;100603.28;5119810;27;2406;-77
2023/08/11 07:06:55;;;;;;;;;;;;;;;15.48;64.36;100599.16;5118629;27;6523;-79
2023/08/11 07:09:47;;;;;;;;;;;;;;;15.51;72.45;100605.97;5116371;27;5405;-84
2023/08/11 07:12:39;;;;;;;;;;;;;;;15.21;69.41;100602.56;5113433;27;5546;-75
2023/08/11 07:15:31;;;;;;;;;;;;;;;15.50;67.17;100612.44;5109422;27;5825;-77
2023/08/11 07:18:23;;;;;;;;;;;;;;;15.33;67.69;100616.03;5104166;27;7128;-76
2023/08/11 07:21:15;;;;;;;;;;;;;;;15.29;67.57;100614.88;5111176;27;5901;-78
2023/08/11 07:24:07;;;;;;;;;;;;;;;15.37;66.80;100619.06;5125739;27;4333;-75
2023/08/11 07:26:59;;;;;;;;;;;;;;;15.33;66.71;100626.09;5126279;27;2037;-76
2023/08/11 07:29:54;;;;;;;;;;;;;;;15.42;66.16;100617.25;5119881;27;2334;-76
2023/08/11 07:32:45;;;;;;;;;;;;;;;15.07;67.35;100624.88;5108708;27;5426;-77
2023/08/11 07:35:37;;;;;;;;;;;;;;;15.10;66.98;100627.09;5116107;28;5552;-76
2023/08/11 07:38:28;;;;;;;;;;;;;;;14.96;67.58;100621.97;5117010;27;6611;-76
2023/08/11 07:41:20;;;;;;;;;;;;;;;14.91;67.57;100627.34;5122656;27;6081;-75
2023/08/11 07:44:12;;;;;;;;;;;;;;;14.94;67.42;100624.16;5121959;27;5871;-75
2023/08/11 07:47:04;;;;;;;;;;;;;;;14.90;67.54;100624.88;5119728;27;5437;-77
2023/08/11 07:49:56;;;;;;;;;;;;;;;14.90;67.44;100620.25;5131251;27;6480;-77
2023/08/11 07:52:48;;;;;;;;;;;;;;;14.89;67.38;100612.38;5118483;27;5573;-77
2023/08/11 07:55:40;;;;;;;;;;;;;;;14.99;66.92;100610.63;5121625;27;5674;-75
2023/08/11 07:58:32;;;;;;;;;;;;;;;14.99;66.96;100615.25;5126314;27;7394;-76
2023/08/11 08:01:24;;;;;;;;;;;;;;;14.94;67.14;100616.00;5117931;27;6152;-78
2023/08/11 08:04:17;;;;;;;;;;;;;;;15.12;66.34;100616.81;5122807;27;5987;-77
2023/08/11 08:07:08;;;;;;;;;;;;;;;14.98;66.82;100622.56;5120475;27;5517;-76
2023/08/11 08:10:00;;;;;;;;;;;;;;;15.04;66.74;100628.09;5119484;27;5377;-76
2023/08/11 08:12:55;;;;;;;;;;;;;;;15.34;66.08;100620.38;5124118;27;5792;-77
2023/08/11 08:15:46;;;;;;;;;;;;;;;15.40;65.20;100616.66;5120857;27;6512;-78
2023/08/11 08:18:38;;;;;;;;;;;;;;;15.58;64.58;100629.13;5114538;27;6071;-75
2023/08/11 08:21:31;;;;;;;;;;;;;;;15.43;65.00;100624.31;5125577;27;5706;-75
2023/08/11 08:24:22;;;;;;;;;;;;;;;15.69;64.11;100618.44;5128649;27;4872;-78
2023/08/11 08:27:15;;;;;;;;;;;;;;;15.36;65.18;100620.97;5132708;27;1985;-76
2023/08/11 08:30:06;;;;;;;;;;;;;;;15.33;65.39;100624.19;5121776;27;5536;-76
2023/08/11 08:32:58;;;;;;;;;;;;;;;15.10;66.23;100624.38;5130470;27;6200;-76
2023/08/11 08:35:50;;;;;;;;;;;;;;;15.05;66.41;100627.81;5124608;27;4248;-77
2023/08/11 08:38:42;;;;;;;;;;;;;;;15.04;66.66;100636.22;5127085;27;2113;-78
2023/08/11 08:41:34;;;;;;;;;;;;;;;14.97;66.87;100625.50;5121453;27;2200;-75
2023/08/11 08:44:26;;;;;;;;;;;;;;;14.95;67.05;100633.09;5127592;27;1368;-76
2023/08/11 08:47:19;;;;;;;;;;;;;;;14.95;66.99;100633.09;5128122;27;3504;-76
2023/08/11 08:50:10;;;;;;;;;;;;;;;14.93;67.05;100627.91;5127810;27;1879;-76
2023/08/11 08:53:02;;;;;;;;;;;;;;;14.93;66.98;100644.19;5122125;27;1692;-78
2023/08/11 08:55:54;;;;;;;;;;;;;;;14.94;67.03;100643.13;5129334;27;1399;-75
2023/08/11 08:58:46;;;;;;;;;;;;;;;14.93;66.97;100627.91;5127023;27;2425;-77
2023/08/11 09:01:38;;;;;;;;;;;;;;;14.94;67.10;100634.16;5126071;27;1959;-78
2023/08/11 09:04:30;;;;;;;;;;;;;;;14.95;67.07;100633.09;5120610;27;2258;-76
2023/08/11 09:07:21;;;;;;;;;;;;;;;14.95;67.16;100624.97;5128324;27;2172;-77
2023/08/11 09:10:13;;;;;;;;;;;;;;;14.95;67.18;100625.78;5121342;27;2227;-77
2023/08/11 09:13:05;;;;;;;;;;;;;;;14.96;67.02;100634.72;5122357;27;4623;-76
2023/08/11 09:15:57;;;;;;;;;;;;;;;14.95;67.13;100636.63;5121868;27;2048;-79
2023/08/11 09:18:49;;;;;;;;;;;;;;;14.97;67.17;100641.78;5128972;27;2089;-76
2023/08/11 09:21:41;;;;;;;;;;;;;;;14.97;67.15;100633.66;5125562;27;2005;-75
2023/08/11 09:24:33;;;;;;;;;;;;;;;14.98;67.20;100638.84;5125627;27;1777;-76
2023/08/11 09:27:24;;;;;;;;;;;;;;;14.97;67.08;100639.91;5126521;27;2108;-76
2023/08/11 09:30:16;;;;;;;;;;;;;;;14.99;67.15;100643.19;5121805;27;6017;-78
2023/08/11 09:33:08;;;;;;;;;;;;;;;15.01;67.19;100644.84;5118409;27;5624;-76
2023/08/11 09:36:00;;;;;;;;;;;;;;;15.02;67.05;100649.19;5119366;27;6026;-78
2023/08/11 09:38:52;;;;;;;;;;;;;;;15.03;67.03;100645.41;5122248;27;7342;-77
2023/08/11 09:41:44;;;;;;;;;;;;;;;15.03;67.15;100637.25;5117966;27;6030;-78
2023/08/11 09:44:36;;;;;;;;;;;;;;;15.04;67.16;100636.22;5122269;27;6574;-76
2023/08/11 09:47:29;;;;;;;;;;;;;;;15.04;67.25;100625.38;5123454;27;6107;-76
2023/08/11 09:50:20;;;;;;;;;;;;;;;15.05;67.13;100637.84;5112790;27;5338;-76
2023/08/11 09:53:12;;;;;;;;;;;;;;;15.05;67.17;100635.97;5113904;27;5871;-77
2023/08/11 09:56:03;;;;;;;;;;;;;;;15.06;67.20;100631.34;5112737;27;5412;-78
2023/08/11 09:58:57;;;;;;;;;;;;;;;15.07;67.25;100627.59;5112930;27;6721;-77
2023/08/11 10:01:48;;;;;;;;;;;;;;;15.09;67.13;100620.00;5104062;27;5454;-76
2023/08/11 10:04:40;;;;;;;;;;;;;;;15.10;67.18;100622.47;5106592;27;5845;-78
2023/08/11 10:07:33;;;;;;;;;;;;;;;15.11;67.25;100626.81;5114474;27;5552;-79
2023/08/11 10:10:25;;;;;;;;;;;;;;;15.13;67.13;100621.16;5125754;27;6154;-77
2023/08/11 10:13:18;;;;;;;;;;;;;;;15.13;67.29;100621.97;5123081;27;6327;-78
2023/08/11 10:16:12;;;;;;;;;;;;;;;15.14;67.34;100630.94;5119672;27;5671;-78
2023/08/11 10:19:03;;;;;;;;;;;;;;;15.14;67.43;100630.94;5117899;27;6303;-77
2023/08/11 10:21:55;;;;;;;;;;;;;;;15.15;67.38;100632.59;5121542;27;6056;-76
2023/08/11 10:24:47;;;;;;;;;;;;;;;15.16;67.41;100632.34;5118952;27;5587;-76
2023/08/11 10:27:39;;;;;;;;;;;;;;;15.18;67.39;100630.22;5116551;27;5608;-81
2023/08/11 10:30:31;;;;;;;;;;;;;;;15.19;67.34;100637.25;5115194;27;5509;-78
2023/08/11 10:33:23;;;;;;;;;;;;;;;15.20;67.42;100625.34;5110184;27;5790;-77
2023/08/11 10:36:16;;;;;;;;;;;;;;;15.21;67.41;100620.75;5126318;27;4915;-76
2023/08/11 10:39:08;;;;;;;;;;;;;;;15.24;67.35;100628.41;5129864;27;4916;-78
2023/08/11 10:42:00;;;;;;;;;;;;;;;15.24;67.41;100625.69;5122776;27;1959;-78
2023/08/11 10:44:51;;;;;;;;;;;;;;;15.22;67.48;100620.50;5114856;27;5076;-79
2023/08/11 10:47:43;;;;;;;;;;;;;;;15.24;67.45;100614.00;5117435;27;5172;-77
2023/08/11 10:50:35;;;;;;;;;;;;;;;15.24;67.44;100617.53;5106357;27;5125;-76
2023/08/11 10:53:27;;;;;;;;;;;;;;;15.28;67.46;100617.84;5117979;27;5278;-77
2023/08/11 10:56:19;;;;;;;;;;;;;;;15.28;67.44;100623.28;5110965;27;5365;-77
2023/08/11 10:59:11;;;;;;;;;;;;;;;15.28;67.59;100626.81;5108418;27;5525;-78
2023/08/11 11:02:03;;;;;;;;;;;;;;;15.30;67.56;100627.41;5108299;27;5701;-76
2023/08/11 11:04:55;;;;;;;;;;;;;;;15.32;67.61;100630.66;5107516;28;4914;-77
2023/08/11 11:07:48;;;;;;;;;;;;;;;15.33;67.59;100626.09;5109413;27;4843;-77
2023/08/11 11:10:41;;;;;;;;;;;;;;;15.33;67.67;100634.22;5111554;27;5540;-78
2023/08/11 11:13:32;;;;;;;;;;;;;;;14.89;67.42;100574.44;5111781;27;5043;-77
2023/08/11 11:16:23;;;;;;;;;;;;;;;15.34;67.69;100631.25;5113739;27;5143;-77
2023/08/11 11:19:15;;;;;;;;;;;;;;;15.36;67.68;100631.00;5115143;27;6401;-77
2023/08/11 11:22:08;;;;;;;;;;;;;;;15.37;67.56;100627.22;5116513;27;5343;-79
2023/08/11 11:24:59;;;;;;;;;;;;;;;15.39;67.74;100627.78;5115938;27;5467;-79
2023/08/11 11:27:50;;;;;;;;;;;;;;;15.39;67.83;100627.78;5117101;27;5344;-78
2023/08/11 11:30:42;;;;;;;;;;;;;;;15.40;67.81;100646.53;5113867;27;5458;-76
2023/08/11 11:33:34;;;;;;;;;;;;;;;15.42;67.89;100638.16;5118941;27;5412;-79
2023/08/11 11:36:27;;;;;;;;;;;;;;;15.43;67.82;100640.59;5113164;27;5456;-79
2023/08/11 11:39:19;;;;;;;;;;;;;;;15.44;67.89;100639.53;5114274;27;5409;-78
2023/08/11 11:42:10;;;;;;;;;;;;;;;15.45;67.95;100646.59;5111286;27;5341;-76
2023/08/11 11:45:02;;;;;;;;;;;;;;;15.45;67.98;100643.06;5114935;27;5308;-77
2023/08/11 11:47:54;;;;;;;;;;;;;;;15.47;68.05;100643.66;5113365;27;5640;-78
2023/08/11 11:50:47;;;;;;;;;;;;;;;15.47;68.08;100643.66;5115363;27;5348;-78
2023/08/11 11:53:39;;;;;;;;;;;;;;;15.50;68.02;100643.16;5116036;27;5868;-75
2023/08/11 11:56:30;;;;;;;;;;;;;;;15.51;68.08;100654.84;5125269;27;5302;-78
2023/08/11 11:59:22;;;;;;;;;;;;;;;15.52;68.28;100648.31;5120228;27;5229;-77
2023/08/11 12:02:13;;;;;;;;;;;;;;;15.52;68.18;100653.75;5114649;27;5521;-77
2023/08/11 12:05:05;;;;;;;;;;;;;;;15.63;68.16;100644.69;5111674;27;5327;-77
2023/08/11 12:07:57;;;;;;;;;;;;;;;15.60;68.15;100656.03;5110477;27;5276;-76
2023/08/11 12:10:49;;;;;;;;;;;;;;;15.58;68.29;100647.31;5111079;27;5364;-76
2023/08/11 12:13:41;;;;;;;;;;;;;;;15.57;68.29;100643.78;5110567;27;5309;-76
2023/08/11 12:16:33;;;;;;;;;;;;;;;15.57;68.29;100651.94;5111665;27;5349;-78
2023/08/11 12:19:26;;;;;;;;;;;;;;;15.59;68.23;100641.66;5111569;27;5149;-77
2023/08/11 12:22:17;;;;;;;;;;;;;;;15.60;68.29;100651.44;5117169;27;5377;-78
2023/08/11 12:25:10;;;;;;;;;;;;;;;15.62;68.19;100656.63;5119609;27;5509;-76
2023/08/11 12:28:02;;;;;;;;;;;;;;;15.64;68.27;100643.59;5116989;27;6505;-78
2023/08/11 12:30:54;;;;;;;;;;;;;;;15.63;68.37;100645.50;5122073;27;5408;-75
2023/08/11 12:33:46;;;;;;;;;;;;;;;15.64;68.39;100644.41;5120908;27;5754;-77
2023/08/11 12:36:38;;;;;;;;;;;;;;;15.64;68.47;100643.59;5128115;27;5536;-77
2023/08/11 12:39:31;;;;;;;;;;;;;;;15.65;68.54;100650.69;5127478;27;1340;-78
2023/08/11 12:42:23;;;;;;;;;;;;;;;15.67;68.45;100648.53;5128643;27;2100;-76
2023/08/11 12:45:15;;;;;;;;;;;;;;;15.68;68.56;100663.78;5126792;27;1977;-77
2023/08/11 12:48:08;;;;;;;;;;;;;;;15.70;68.55;100667.06;5132864;27;2033;-80
2023/08/11 12:50:59;;;;;;;;;;;;;;;15.71;68.60;100666.00;5132364;27;1356;-76
2023/08/11 12:53:51;;;;;;;;;;;;;;;15.69;68.96;100670.03;5125037;27;4959;-79
2023/08/11 12:56:43;;;;;;;;;;;;;;;15.73;68.72;100684.75;5118187;27;2363;-79
2023/08/11 12:59:36;;;;;;;;;;;;;;;15.74;68.61;100672.84;5119952;27;2344;-78
2023/08/11 13:02:27;;;;;;;;;;;;;;;15.76;68.63;100676.91;5119457;27;2220;-79
2023/08/11 13:05:19;;;;;;;;;;;;;;;15.77;68.68;100678.56;5117809;27;2559;-80
2023/08/11 13:08:11;;;;;;;;;;;;;;;15.78;68.69;100679.38;5119605;27;2644;-79
2023/08/11 13:11:03;;;;;;;;;;;;;;;15.80;68.70;100682.69;5115125;27;2612;-79
2023/08/11 13:13:55;;;;;;;;;;;;;;;15.79;68.85;100681.84;5119321;27;2300;-78
2023/08/11 13:16:47;;;;;;;;;;;;;;;15.81;68.83;100679.69;5115532;27;2349;-78
2023/08/11 13:19:39;;;;;;;;;;;;;;;15.83;68.89;100690.31;5124990;27;2108;-77
2023/08/11 13:22:31;;;;;;;;;;;;;;;15.84;68.86;100686.53;5129331;27;5615;-77
2023/08/11 13:25:23;;;;;;;;;;;;;;;15.86;68.94;100690.63;5127618;27;5064;-78
2023/08/11 13:28:15;;;;;;;;;;;;;;;15.86;68.92;100692.53;5126140;27;5240;-77
2023/08/11 13:31:07;;;;;;;;;;;;;;;15.87;68.90;100700.41;5120421;27;5687;-77
2023/08/11 13:33:59;;;;;;;;;;;;;;;15.89;69.05;100692.84;5112456;27;5113;-76
2023/08/11 13:36:51;;;;;;;;;;;;;;;15.90;69.07;100704.53;5112645;27;5303;-79
2023/08/11 13:39:43;;;;;;;;;;;;;;;15.90;69.13;100694.47;5112005;27;5907;-76
2023/08/11 13:42:35;;;;;;;;;;;;;;;15.90;69.17;100691.78;5107958;27;5482;-78
2023/08/11 13:45:27;;;;;;;;;;;;;;;15.92;69.11;100688.00;5111853;27;6017;-79
2023/08/11 13:48:21;;;;;;;;;;;;;;;15.93;69.17;100693.16;5110422;27;5325;-77
2023/08/11 13:51:13;;;;;;;;;;;;;;;15.95;69.22;100698.34;5109623;27;5516;-79
2023/08/11 13:54:05;;;;;;;;;;;;;;;15.96;69.17;100692.66;5109489;27;5556;-76
2023/08/11 13:56:57;;;;;;;;;;;;;;;15.99;69.26;100702.19;5108346;27;5403;-78
2023/08/11 13:59:49;;;;;;;;;;;;;;;15.99;69.26;100703.03;5111336;27;5589;-77
2023/08/11 14:02:42;;;;;;;;;;;;;;;16.00;69.28;100696.53;5105141;27;5343;-77
2023/08/11 14:05:34;;;;;;;;;;;;;;;16.01;69.37;100686.47;5109022;27;5323;-77
2023/08/11 14:08:25;;;;;;;;;;;;;;;16.01;69.42;100689.19;5107992;27;5404;-80
2023/08/11 14:11:18;;;;;;;;;;;;;;;16.01;69.38;100684.59;5108516;27;5446;-78
2023/08/11 14:14:09;;;;;;;;;;;;;;;16.03;69.37;100692.47;5110096;27;5282;-77
2023/08/11 14:17:01;;;;;;;;;;;;;;;16.03;69.43;100693.31;5108412;27;5314;-77
2023/08/11 14:19:53;;;;;;;;;;;;;;;16.06;69.46;100697.38;5116780;27;5495;-78
2023/08/11 14:22:45;;;;;;;;;;;;;;;16.07;69.46;100705.31;5116305;27;5549;-77
2023/08/11 14:25:38;;;;;;;;;;;;;;;16.08;69.50;100689.81;5122495;27;5398;-79
2023/08/11 14:28:30;;;;;;;;;;;;;;;16.09;69.54;100689.59;5122716;27;5347;-77
2023/08/11 14:31:22;;;;;;;;;;;;;;;16.10;69.50;100693.13;5117126;27;5509;-80
2023/08/11 14:34:14;;;;;;;;;;;;;;;16.11;69.50;100692.03;5122448;27;5846;-79
2023/08/11 14:37:07;;;;;;;;;;;;;;;16.12;69.51;100701.84;5115475;27;5371;-79
2023/08/11 14:39:58;;;;;;;;;;;;;;;16.11;69.67;100701.00;5119057;27;5351;-80
2023/08/11 14:42:52;;;;;;;;;;;;;;;16.14;69.62;100707.81;5116129;27;5459;-78
2023/08/11 14:45:44;;;;;;;;;;;;;;;16.15;69.54;100701.34;5114631;27;5496;-78
2023/08/11 14:48:35;;;;;;;;;;;;;;;16.16;69.59;100696.72;5121595;27;5311;-78
2023/08/11 14:51:27;;;;;;;;;;;;;;;16.17;69.55;100710.03;5117781;27;5433;-78
2023/08/11 14:54:20;;;;;;;;;;;;;;;16.19;69.62;100704.38;5118528;27;5364;-78
2023/08/11 14:57:12;;;;;;;;;;;;;;;16.20;69.61;100703.28;5119038;27;5947;-79